createdAt,value
2023-05-13T00:02:13.056Z,1007.24
2023-05-13T00:04:45.571Z,1007.25
2023-05-13T00:07:19.044Z,1007.25
2023-05-13T00:09:51.966Z,1007.23
2023-05-13T00:12:24.763Z,1007.20
2023-05-13T00:14:57.970Z,1007.18
2023-05-13T00:17:30.805Z,1007.15
2023-05-13T00:20:04.089Z,1007.13
2023-05-13T00:22:38.038Z,1007.10
2023-05-13T00:25:10.934Z,1007.07
2023-05-13T00:27:43.843Z,1007.05
2023-05-13T00:30:16.792Z,1007.03
2023-05-13T00:32:49.852Z,1007.02
2023-05-13T00:35:23.008Z,1007.00
2023-05-13T00:37:55.632Z,1007.00
2023-05-13T00:40:29.177Z,1006.99
2023-05-13T00:43:02.908Z,1006.98
2023-05-13T00:45:35.927Z,1006.99
2023-05-13T00:48:09.026Z,1007.00
2023-05-13T00:50:42.192Z,1007.00
2023-05-13T00:53:16.133Z,1006.99
2023-05-13T00:55:49.919Z,1006.99
2023-05-13T00:58:23.010Z,1006.99
2023-05-13T01:00:56.082Z,1006.99
2023-05-13T01:03:28.816Z,1006.98
2023-05-13T01:06:01.685Z,1006.97
2023-05-13T01:08:35.095Z,1006.97
2023-05-13T01:11:08.003Z,1006.96
2023-05-13T01:13:40.862Z,1006.97
2023-05-13T01:16:14.097Z,1006.96
2023-05-13T01:18:53.114Z,1006.97
2023-05-13T01:21:25.737Z,1006.97
2023-05-13T01:23:58.984Z,1006.98
2023-05-13T01:26:31.878Z,1006.99
2023-05-13T01:29:04.875Z,1007.01
2023-05-13T01:31:37.926Z,1007.02
2023-05-13T01:34:11.120Z,1007.04
2023-05-13T01:36:44.102Z,1007.05
2023-05-13T01:39:17.292Z,1007.07
2023-05-13T01:41:51.029Z,1007.07
2023-05-13T01:44:23.888Z,1007.07
2023-05-13T01:46:57.501Z,1007.07
2023-05-13T01:49:31.147Z,1007.09
2023-05-13T01:52:04.025Z,1007.09
2023-05-13T01:54:36.918Z,1007.10
2023-05-13T01:57:10.093Z,1007.10
2023-05-13T01:59:43.147Z,1007.15
2023-05-13T02:02:16.127Z,1007.19
2023-05-13T02:04:49.143Z,1007.20
2023-05-13T02:07:22.217Z,1007.21
2023-05-13T02:09:55.761Z,1007.22
2023-05-13T02:12:29.288Z,1007.25
2023-05-13T02:15:03.030Z,1007.25
2023-05-13T02:17:35.979Z,1007.27
2023-05-13T02:20:09.110Z,1007.28
2023-05-13T02:22:41.998Z,1007.29
2023-05-13T02:25:14.921Z,1007.31
2023-05-13T02:30:37.937Z,1007.31
2023-05-13T02:33:11.157Z,1007.30
2023-05-13T02:35:44.173Z,1007.29
2023-05-13T02:38:17.228Z,1007.28
2023-05-13T02:40:50.216Z,1007.27
2023-05-13T02:43:23.163Z,1007.26
2023-05-13T02:45:56.045Z,1007.25
2023-05-13T02:48:29.216Z,1007.23
2023-05-13T02:51:02.810Z,1007.20
2023-05-13T02:53:36.181Z,1007.19
2023-05-13T02:56:09.136Z,1007.19
2023-05-13T02:58:42.159Z,1007.19
2023-05-13T03:01:15.241Z,1007.17
2023-05-13T03:03:48.103Z,1007.17
2023-05-13T03:06:21.103Z,1007.16
2023-05-13T03:08:54.052Z,1007.15
2023-05-13T03:11:27.202Z,1007.13
2023-05-13T03:14:00.003Z,1007.12
2023-05-13T03:16:33.372Z,1007.12
2023-05-13T03:19:05.914Z,1007.12
2023-05-13T03:21:38.977Z,1007.13
2023-05-13T03:24:11.945Z,1007.13
2023-05-13T03:26:45.397Z,1007.15
2023-05-13T03:29:19.260Z,1007.15
2023-05-13T03:31:52.324Z,1007.16
2023-05-13T03:34:25.064Z,1007.16
2023-05-13T03:36:58.010Z,1007.16
2023-05-13T03:39:31.208Z,1007.17
2023-05-13T03:42:04.218Z,1007.19
2023-05-13T03:44:37.262Z,1007.19
2023-05-13T03:47:10.410Z,1007.23
2023-05-13T03:49:46.238Z,1007.25
2023-05-13T03:52:19.379Z,1007.28
2023-05-13T03:54:53.122Z,1007.30
2023-05-13T03:57:26.418Z,1007.33
2023-05-13T04:00:00.313Z,1007.31
2023-05-13T04:02:33.198Z,1007.31
2023-05-13T04:05:06.336Z,1007.31
2023-05-13T04:07:39.162Z,1007.32
2023-05-13T04:10:18.745Z,1007.32
2023-05-13T04:12:47.320Z,1007.32
2023-05-13T04:15:20.336Z,1007.33
2023-05-13T04:17:53.325Z,1007.35
2023-05-13T04:20:26.138Z,1007.36
2023-05-13T04:22:59.362Z,1007.37
2023-05-13T04:25:37.932Z,1007.39
2023-05-13T04:28:11.259Z,1007.41
2023-05-13T04:30:44.360Z,1007.44
2023-05-13T04:33:17.130Z,1007.46
2023-05-13T04:35:50.096Z,1007.49
2023-05-13T04:38:23.405Z,1007.50
2023-05-13T04:40:56.054Z,1007.52
2023-05-13T04:43:29.200Z,1007.52
2023-05-13T04:46:06.124Z,1007.53
2023-05-13T04:48:39.318Z,1007.55
2023-05-13T04:51:12.207Z,1007.57
2023-05-13T04:53:45.431Z,1007.58
2023-05-13T04:56:19.197Z,1007.62
2023-05-13T04:58:52.784Z,1007.65
2023-05-13T05:01:26.643Z,1007.68
2023-05-13T05:04:00.484Z,1007.70
2023-05-13T05:06:33.394Z,1007.71
2023-05-13T05:09:06.016Z,1007.72
2023-05-13T05:11:39.204Z,1007.73
2023-05-13T05:14:12.628Z,1007.75
2023-05-13T05:16:46.331Z,1007.75
2023-05-13T05:19:33.646Z,1007.76
2023-05-13T05:22:07.482Z,1007.78
2023-05-13T05:24:41.634Z,1007.81
2023-05-13T05:27:15.523Z,1007.83
2023-05-13T05:29:49.550Z,1007.86
2023-05-13T05:32:23.466Z,1007.89
2023-05-13T05:34:56.407Z,1007.91
2023-05-13T05:37:29.235Z,1007.93
2023-05-13T05:40:02.209Z,1007.96
2023-05-13T05:42:35.454Z,1007.97
2023-05-13T05:45:08.358Z,1007.96
2023-05-13T05:47:41.458Z,1007.98
2023-05-13T05:50:14.168Z,1008.00
2023-05-13T05:52:47.476Z,1008.01
2023-05-13T05:55:20.253Z,1008.03
2023-05-13T05:57:53.561Z,1008.06
2023-05-13T06:00:27.475Z,1008.09
2023-05-13T06:03:00.628Z,1008.09
2023-05-13T06:05:40.489Z,1008.12
2023-05-13T06:08:13.159Z,1008.12
2023-05-13T06:10:46.685Z,1008.14
2023-05-13T06:13:20.436Z,1008.16
2023-05-13T06:15:53.624Z,1008.18
2023-05-13T06:18:27.641Z,1008.22
2023-05-13T06:21:01.598Z,1008.23
2023-05-13T06:23:35.492Z,1008.26
2023-05-13T06:26:08.693Z,1008.27
2023-05-13T06:28:42.509Z,1008.27
2023-05-13T06:31:15.542Z,1008.28
2023-05-13T06:33:48.533Z,1008.28
2023-05-13T06:36:21.285Z,1008.28
2023-05-13T06:38:54.498Z,1008.29
2023-05-13T06:41:27.286Z,1008.30
2023-05-13T06:44:00.614Z,1008.30
2023-05-13T06:46:48.611Z,1008.30
2023-05-13T06:49:21.354Z,1008.30
2023-05-13T06:51:54.379Z,1008.29
2023-05-13T06:54:27.726Z,1008.29
2023-05-13T06:57:01.509Z,1008.28
2023-05-13T06:59:34.550Z,1008.29
2023-05-13T07:02:07.648Z,1008.28
2023-05-13T07:04:40.542Z,1008.26
2023-05-13T07:07:13.536Z,1008.26
2023-05-13T07:09:49.308Z,1008.25
2023-05-13T07:12:22.600Z,1008.24
2023-05-13T07:14:55.472Z,1008.24
2023-05-13T07:17:28.785Z,1008.26
2023-05-13T07:20:01.637Z,1008.25
2023-05-13T07:22:34.352Z,1008.24
2023-05-13T07:25:07.237Z,1008.23
2023-05-13T07:27:40.495Z,1008.25
2023-05-13T07:30:13.364Z,1008.25
2023-05-13T07:32:46.680Z,1008.27
2023-05-13T07:35:19.687Z,1008.28
2023-05-13T07:37:52.350Z,1008.27
2023-05-13T07:40:25.405Z,1008.27
2023-05-13T07:42:58.355Z,1008.26
2023-05-13T07:45:31.278Z,1008.25
2023-05-13T07:48:04.308Z,1008.25
2023-05-13T07:50:37.411Z,1008.26
2023-05-13T07:53:10.256Z,1008.26
2023-05-13T07:55:43.579Z,1008.25
2023-05-13T07:58:16.617Z,1008.23
2023-05-13T08:00:49.426Z,1008.23
2023-05-13T08:03:22.365Z,1008.22
2023-05-13T08:05:58.373Z,1008.21
2023-05-13T08:08:31.618Z,1008.22
2023-05-13T08:11:04.311Z,1008.20
2023-05-13T08:13:37.685Z,1008.20
2023-05-13T08:16:10.338Z,1008.18
2023-05-13T08:18:43.799Z,1008.18
2023-05-13T08:21:16.418Z,1008.17
2023-05-13T08:23:49.657Z,1008.17
2023-05-13T08:26:22.558Z,1008.17
2023-05-13T08:28:55.513Z,1008.16
2023-05-13T08:31:28.343Z,1008.17
2023-05-13T08:34:01.453Z,1008.15
2023-05-13T08:36:34.430Z,1008.13
2023-05-13T08:39:07.977Z,1008.12
2023-05-13T08:41:41.657Z,1008.09
2023-05-13T08:44:14.710Z,1008.07
2023-05-13T08:46:47.707Z,1008.07
2023-05-13T08:49:20.684Z,1008.06
2023-05-13T08:51:53.678Z,1008.06
2023-05-13T08:54:26.496Z,1008.07
2023-05-13T08:56:59.545Z,1008.06
2023-05-13T08:59:32.755Z,1008.06
2023-05-13T09:02:05.633Z,1008.07
2023-05-13T09:04:38.405Z,1008.06
2023-05-13T09:07:11.368Z,1008.05
2023-05-13T09:09:44.782Z,1008.05
2023-05-13T09:12:17.731Z,1008.05
2023-05-13T09:14:51.257Z,1008.03
2023-05-13T09:17:24.399Z,1008.02
2023-05-13T09:19:57.481Z,1008.02
2023-05-13T09:22:30.762Z,1008.03
2023-05-13T09:25:03.653Z,1008.00
2023-05-13T09:27:36.643Z,1008.00
2023-05-13T09:30:09.404Z,1007.98
2023-05-13T09:32:42.470Z,1007.98
2023-05-13T09:35:15.547Z,1007.96
2023-05-13T09:37:48.559Z,1007.94
2023-05-13T09:40:21.946Z,1007.92
2023-05-13T09:42:54.972Z,1007.90
2023-05-13T09:45:28.704Z,1007.86
2023-05-13T09:48:01.779Z,1007.84
2023-05-13T09:50:34.700Z,1007.84
2023-05-13T09:53:07.687Z,1007.83
2023-05-13T09:55:40.696Z,1007.83
2023-05-13T09:58:13.766Z,1007.81
2023-05-13T10:00:46.868Z,1007.79
2023-05-13T10:03:19.572Z,1007.78
2023-05-13T10:05:52.862Z,1007.78
2023-05-13T10:08:25.628Z,1007.79
2023-05-13T10:10:58.842Z,1007.78
2023-05-13T10:13:31.883Z,1007.79
2023-05-13T10:16:04.784Z,1007.81
2023-05-13T10:18:37.796Z,1007.81
2023-05-13T10:21:10.760Z,1007.81
2023-05-13T10:23:43.747Z,1007.80
2023-05-13T10:26:16.604Z,1007.78
2023-05-13T10:28:49.863Z,1007.77
2023-05-13T10:31:22.782Z,1007.77
2023-05-13T10:33:55.739Z,1007.75
2023-05-13T10:36:28.915Z,1007.74
2023-05-13T10:39:01.896Z,1007.73
2023-05-13T10:41:34.755Z,1007.72
2023-05-13T10:44:09.305Z,1007.71
2023-05-13T10:46:40.804Z,1007.70
2023-05-13T10:49:14.172Z,1007.70
2023-05-13T10:52:01.951Z,1007.68
2023-05-13T10:54:34.701Z,1007.66
2023-05-13T10:57:07.736Z,1007.64
2023-05-13T10:59:40.800Z,1007.63
2023-05-13T11:02:13.743Z,1007.62
2023-05-13T11:04:46.871Z,1007.60
2023-05-13T11:07:19.882Z,1007.59
2023-05-13T11:09:52.889Z,1007.56
2023-05-13T11:12:25.653Z,1007.53
2023-05-13T11:14:58.931Z,1007.50
2023-05-13T11:17:32.000Z,1007.46
2023-05-13T11:20:15.229Z,1007.45
2023-05-13T11:22:48.581Z,1007.42
2023-05-13T11:25:21.752Z,1007.41
2023-05-13T11:27:54.559Z,1007.38
2023-05-13T11:30:27.993Z,1007.37
2023-05-13T11:33:00.797Z,1007.33
2023-05-13T11:35:33.854Z,1007.32
2023-05-13T11:38:06.621Z,1007.31
2023-05-13T11:40:39.579Z,1007.31
2023-05-13T11:43:12.622Z,1007.32
2023-05-13T11:45:45.731Z,1007.31
2023-05-13T11:48:18.899Z,1007.31
2023-05-13T11:50:51.791Z,1007.30
2023-05-13T11:53:24.732Z,1007.30
2023-05-13T11:55:57.979Z,1007.32
2023-05-13T11:58:30.902Z,1007.30
2023-05-13T12:01:03.731Z,1007.29
2023-05-13T12:03:36.673Z,1007.29
2023-05-13T12:06:10.128Z,1007.27
2023-05-13T12:08:43.632Z,1007.26
2023-05-13T12:11:16.864Z,1007.25
2023-05-13T12:13:50.009Z,1007.23
2023-05-13T12:16:22.828Z,1007.21
2023-05-13T12:18:55.894Z,1007.20
2023-05-13T12:21:28.903Z,1007.19
2023-05-13T12:24:02.008Z,1007.16
2023-05-13T12:26:34.906Z,1007.16
2023-05-13T12:29:09.874Z,1007.15
2023-05-13T12:31:42.998Z,1007.15
2023-05-13T12:34:15.915Z,1007.13
2023-05-13T12:36:49.287Z,1007.10
2023-05-13T12:39:23.128Z,1007.08
2023-05-13T12:41:56.037Z,1007.05
2023-05-13T12:44:29.056Z,1007.02
2023-05-13T12:47:02.154Z,1007.04
2023-05-13T12:49:34.672Z,1007.04
2023-05-13T12:52:07.684Z,1007.06
2023-05-13T12:54:40.976Z,1007.06
2023-05-13T12:57:13.824Z,1007.06
2023-05-13T12:59:46.912Z,1007.07
2023-05-13T13:02:19.978Z,1007.08
2023-05-13T13:04:52.902Z,1007.10
2023-05-13T13:07:25.942Z,1007.13
2023-05-13T13:09:58.889Z,1007.18
2023-05-13T13:12:31.839Z,1007.21
2023-05-13T13:15:04.842Z,1007.24
2023-05-13T13:17:37.752Z,1007.26
2023-05-13T13:20:10.713Z,1007.26
2023-05-13T13:22:49.849Z,1007.26
2023-05-13T13:25:23.134Z,1007.26
2023-05-13T13:27:55.874Z,1007.24
2023-05-13T13:30:29.013Z,1007.24
2023-05-13T13:33:01.906Z,1007.21
2023-05-13T13:35:34.749Z,1007.20
2023-05-13T13:38:07.972Z,1007.18
2023-05-13T13:40:40.853Z,1007.15
2023-05-13T13:43:14.198Z,1007.13
2023-05-13T13:45:48.106Z,1007.12
2023-05-13T13:48:21.118Z,1007.13
2023-05-13T13:50:54.035Z,1007.12
2023-05-13T13:53:27.134Z,1007.11
2023-05-13T13:56:00.232Z,1007.11
2023-05-13T13:58:33.029Z,1007.11
2023-05-13T14:01:05.838Z,1007.12
2023-05-13T14:03:38.916Z,1007.13
2023-05-13T14:06:11.861Z,1007.13
2023-05-13T14:08:45.178Z,1007.15
2023-05-13T14:11:18.100Z,1007.15
2023-05-13T14:13:51.204Z,1007.16
2023-05-13T14:16:23.958Z,1007.18
2023-05-13T14:18:57.253Z,1007.19
2023-05-13T14:21:30.376Z,1007.17
2023-05-13T14:24:04.112Z,1007.16
2023-05-13T14:26:37.105Z,1007.13
2023-05-13T14:29:10.280Z,1007.10
2023-05-13T14:31:48.097Z,1007.07
2023-05-13T14:34:25.017Z,1007.05
2023-05-13T14:36:58.148Z,1007.03
2023-05-13T14:39:31.243Z,1007.00
2023-05-13T14:42:03.969Z,1007.00
2023-05-13T14:44:37.096Z,1006.99
2023-05-13T14:47:10.044Z,1006.98
2023-05-13T14:49:42.882Z,1006.98
2023-05-13T14:52:16.106Z,1006.96
2023-05-13T14:54:49.018Z,1006.95
2023-05-13T14:57:22.206Z,1006.94
2023-05-13T14:59:55.127Z,1006.93
2023-05-13T15:02:28.186Z,1006.92
2023-05-13T15:05:01.100Z,1006.90
2023-05-13T15:07:33.852Z,1006.89
2023-05-13T15:10:06.903Z,1006.87
2023-05-13T15:12:39.930Z,1006.86
2023-05-13T15:15:13.167Z,1006.85
2023-05-13T15:17:46.431Z,1006.82
2023-05-13T15:20:20.389Z,1006.82
2023-05-13T15:22:53.253Z,1006.78
2023-05-13T15:25:26.222Z,1006.76
2023-05-13T15:27:59.224Z,1006.74
2023-05-13T15:30:32.319Z,1006.72
2023-05-13T15:33:05.105Z,1006.68
2023-05-13T15:35:38.164Z,1006.68
2023-05-13T15:38:11.184Z,1006.66
2023-05-13T15:40:44.601Z,1006.64
2023-05-13T15:43:17.967Z,1006.65
2023-05-13T15:45:51.215Z,1006.65
2023-05-13T15:48:24.352Z,1006.64
2023-05-13T15:50:57.270Z,1006.65
2023-05-13T15:53:30.410Z,1006.66
2023-05-13T15:56:04.190Z,1006.66
2023-05-13T15:58:36.974Z,1006.65
2023-05-13T16:01:10.237Z,1006.65
2023-05-13T16:03:42.957Z,1006.62
2023-05-13T16:06:15.965Z,1006.60
2023-05-13T16:08:49.169Z,1006.60
2023-05-13T16:11:35.960Z,1006.58
2023-05-13T16:14:09.294Z,1006.57
2023-05-13T16:16:46.554Z,1006.61
2023-05-13T16:19:19.027Z,1006.63
2023-05-13T16:21:51.966Z,1006.69
2023-05-13T16:24:25.152Z,1006.74
2023-05-13T16:26:58.995Z,1006.74
2023-05-13T16:29:34.166Z,1006.75
2023-05-13T16:32:06.997Z,1006.77
2023-05-13T16:34:40.006Z,1006.80
2023-05-13T16:37:13.324Z,1006.79
2023-05-13T16:39:47.010Z,1006.77
2023-05-13T16:42:20.023Z,1006.74
2023-05-13T16:44:53.225Z,1006.72
2023-05-13T16:47:26.218Z,1006.71
2023-05-13T16:49:59.133Z,1006.70
2023-05-13T16:52:32.424Z,1006.67
2023-05-13T16:55:05.043Z,1006.65
2023-05-13T16:57:41.009Z,1006.63
2023-05-13T17:00:14.131Z,1006.60
2023-05-13T17:02:47.545Z,1006.58
2023-05-13T17:05:20.505Z,1006.58
2023-05-13T17:07:54.437Z,1006.58
2023-05-13T17:10:27.285Z,1006.58
2023-05-13T17:13:00.176Z,1006.57
2023-05-13T17:15:47.455Z,1006.58
2023-05-13T17:18:20.100Z,1006.57
2023-05-13T17:20:53.482Z,1006.56
2023-05-13T17:23:26.462Z,1006.57
2023-05-13T17:25:59.474Z,1006.57
2023-05-13T17:28:32.410Z,1006.59
2023-05-13T17:31:05.403Z,1006.59
2023-05-13T17:33:38.402Z,1006.61
2023-05-13T17:36:11.404Z,1006.62
2023-05-13T17:38:44.584Z,1006.63
2023-05-13T17:41:18.436Z,1006.63
2023-05-13T17:43:51.336Z,1006.64
2023-05-13T17:46:24.688Z,1006.64
2023-05-13T17:48:59.492Z,1006.63
2023-05-13T17:51:32.524Z,1006.64
2023-05-13T17:54:05.366Z,1006.63
2023-05-13T17:56:38.391Z,1006.63
2023-05-13T17:59:11.388Z,1006.64
2023-05-13T18:01:44.579Z,1006.65
2023-05-13T18:04:17.509Z,1006.67
2023-05-13T18:06:50.514Z,1006.67
2023-05-13T18:09:23.384Z,1006.69
2023-05-13T18:11:56.513Z,1006.71
2023-05-13T18:14:29.462Z,1006.73
2023-05-13T18:17:02.536Z,1006.74
2023-05-13T18:19:35.416Z,1006.77
2023-05-13T18:22:08.432Z,1006.78
2023-05-13T18:24:41.472Z,1006.80
2023-05-13T18:27:14.477Z,1006.83
2023-05-13T18:29:47.550Z,1006.86
2023-05-13T18:32:20.474Z,1006.88
2023-05-13T18:34:53.599Z,1006.89
2023-05-13T18:37:26.686Z,1006.92
2023-05-13T18:40:00.369Z,1006.93
2023-05-13T18:42:33.584Z,1006.93
2023-05-13T18:45:06.448Z,1006.94
2023-05-13T18:47:39.545Z,1006.97
2023-05-13T18:50:12.465Z,1007.00
2023-05-13T18:52:45.603Z,1007.02
2023-05-13T18:55:18.527Z,1007.05
2023-05-13T18:57:51.665Z,1007.06
2023-05-13T19:00:25.698Z,1007.09
2023-05-13T19:03:13.881Z,1007.13
2023-05-13T19:05:47.639Z,1007.15
2023-05-13T19:08:20.471Z,1007.18
2023-05-13T19:10:53.692Z,1007.23
2023-05-13T19:13:39.477Z,1007.23
2023-05-13T19:16:01.574Z,1007.27
2023-05-13T19:18:34.654Z,1007.30
2023-05-13T19:21:07.849Z,1007.33
2023-05-13T19:23:41.689Z,1007.36
2023-05-13T19:26:15.527Z,1007.39
2023-05-13T19:28:48.875Z,1007.42
2023-05-13T19:31:22.479Z,1007.45
2023-05-13T19:33:59.583Z,1007.49
2023-05-13T19:36:32.589Z,1007.51
2023-05-13T19:39:05.834Z,1007.54
2023-05-13T19:41:39.681Z,1007.58
2023-05-13T19:44:12.588Z,1007.61
2023-05-13T19:46:45.755Z,1007.63
2023-05-13T19:49:18.274Z,1007.64
2023-05-13T19:51:51.662Z,1007.66
2023-05-13T19:54:24.601Z,1007.67
2023-05-13T19:56:57.681Z,1007.67
2023-05-13T19:59:30.581Z,1007.65
2023-05-13T20:02:03.798Z,1007.64
2023-05-13T20:04:37.701Z,1007.64
2023-05-13T20:07:10.766Z,1007.66
2023-05-13T20:09:44.518Z,1007.67
2023-05-13T20:12:17.302Z,1007.68
2023-05-13T20:14:50.315Z,1007.70
2023-05-13T20:17:23.347Z,1007.70
2023-05-13T20:19:56.791Z,1007.73
2023-05-13T20:22:29.516Z,1007.73
2023-05-13T20:25:02.822Z,1007.75
2023-05-13T20:27:36.656Z,1007.77
2023-05-13T20:30:09.485Z,1007.76
2023-05-13T20:32:42.754Z,1007.77
2023-05-13T20:35:15.546Z,1007.77
2023-05-13T20:37:48.746Z,1007.77
2023-05-13T20:40:21.913Z,1007.76
2023-05-13T20:42:54.643Z,1007.75
2023-05-13T20:45:27.715Z,1007.74
2023-05-13T20:48:00.935Z,1007.72
2023-05-13T20:50:34.718Z,1007.71
2023-05-13T20:53:07.356Z,1007.69
2023-05-13T20:55:40.732Z,1007.68
2023-05-13T20:58:13.571Z,1007.69
2023-05-13T21:00:46.905Z,1007.70
2023-05-13T21:03:20.693Z,1007.71
2023-05-13T21:05:53.663Z,1007.70
2023-05-13T21:08:26.573Z,1007.70
2023-05-13T21:10:59.779Z,1007.70
2023-05-13T21:13:32.578Z,1007.69
2023-05-13T21:16:05.838Z,1007.67
2023-05-13T21:18:38.799Z,1007.66
2023-05-13T21:21:11.436Z,1007.65
2023-05-13T21:23:44.633Z,1007.65
2023-05-13T21:26:23.357Z,1007.63
2023-05-13T21:28:56.752Z,1007.65
2023-05-13T21:31:29.883Z,1007.64
2023-05-13T21:34:02.832Z,1007.63
2023-05-13T21:36:35.672Z,1007.62
2023-05-13T21:39:08.711Z,1007.62
2023-05-13T21:41:41.452Z,1007.62
2023-05-13T21:44:14.714Z,1007.63
2023-05-13T21:46:48.024Z,1007.62
2023-05-13T21:49:21.693Z,1007.62
2023-05-13T21:51:54.623Z,1007.62
2023-05-13T21:54:27.657Z,1007.62
2023-05-13T21:57:04.267Z,1007.62
2023-05-13T21:59:37.656Z,1007.61
2023-05-13T22:02:10.561Z,1007.61
2023-05-13T22:04:43.804Z,1007.61
2023-05-13T22:07:16.764Z,1007.61
2023-05-13T22:09:50.601Z,1007.61
2023-05-13T22:12:22.481Z,1007.60
2023-05-13T22:14:55.976Z,1007.58
2023-05-13T22:17:29.989Z,1007.56
2023-05-13T22:20:02.729Z,1007.54
2023-05-13T22:22:35.896Z,1007.51
2023-05-13T22:25:08.894Z,1007.49
2023-05-13T22:27:41.493Z,1007.45
2023-05-13T22:30:14.862Z,1007.44
2023-05-13T22:32:47.978Z,1007.41
2023-05-13T22:35:21.826Z,1007.40
2023-05-13T22:37:54.739Z,1007.37
2023-05-13T22:40:27.783Z,1007.36
2023-05-13T22:43:00.719Z,1007.35
2023-05-13T22:45:33.891Z,1007.34
2023-05-13T22:48:06.547Z,1007.33
2023-05-13T22:50:39.770Z,1007.34
2023-05-13T22:53:12.691Z,1007.33
2023-05-13T22:55:45.932Z,1007.33
2023-05-13T22:58:18.872Z,1007.31
2023-05-13T23:00:52.009Z,1007.30
2023-05-13T23:03:26.148Z,1007.29
2023-05-13T23:05:59.924Z,1007.28
2023-05-13T23:08:33.054Z,1007.27
2023-05-13T23:11:06.557Z,1007.24
2023-05-13T23:13:39.842Z,1007.21
2023-05-13T23:16:12.825Z,1007.20
2023-05-13T23:18:49.838Z,1007.18
2023-05-13T23:21:22.904Z,1007.17
2023-05-13T23:23:56.039Z,1007.16
2023-05-13T23:26:28.959Z,1007.17
2023-05-13T23:29:02.007Z,1007.17
2023-05-13T23:31:35.091Z,1007.16
2023-05-13T23:34:08.873Z,1007.18
2023-05-13T23:36:41.972Z,1007.19
2023-05-13T23:39:14.776Z,1007.19
2023-05-13T23:41:48.233Z,1007.18
2023-05-13T23:44:21.872Z,1007.17
2023-05-13T23:46:54.977Z,1007.15
2023-05-13T23:49:27.837Z,1007.14
2023-05-13T23:52:00.989Z,1007.14
2023-05-13T23:54:34.248Z,1007.12
2023-05-13T23:57:07.921Z,1007.10
2023-05-13T23:59:41.080Z,1007.09
